sensor_id;sensor_type;location;lat;lon;timestamp;pressure;altitude;pressure_sealevel;temperature;humidity
77706;BME280;66874;45.274;5.880;2023-04-24T02:00:23;98532.47;;;10.12;84.58
77706;BME280;66874;45.274;5.880;2023-04-24T02:02:49;98532.41;;;10.15;84.35
77706;BME280;66874;45.274;5.880;2023-04-24T02:05:15;98529.69;;;10.18;84.28
77706;BME280;66874;45.274;5.880;2023-04-24T02:07:40;98531.31;;;10.22;84.02
77706;BME280;66874;45.274;5.880;2023-04-24T02:10:06;98535.63;;;10.24;84.06
77706;BME280;66874;45.274;5.880;2023-04-24T02:12:32;98532.13;;;10.25;84.06
77706;BME280;66874;45.274;5.880;2023-04-24T02:14:57;98531.31;;;10.23;84.18
77706;BME280;66874;45.274;5.880;2023-04-24T02:17:23;98540.91;;;10.23;84.29
77706;BME280;66874;45.274;5.880;2023-04-24T02:19:48;98539.22;;;10.20;84.28
77706;BME280;66874;45.274;5.880;2023-04-24T02:22:14;98539.22;;;10.20;84.39
77706;BME280;66874;45.274;5.880;2023-04-24T02:24:39;98541.84;;;10.20;84.43
77706;BME280;66874;45.274;5.880;2023-04-24T02:27:05;98552.28;;;10.20;84.41
77706;BME280;66874;45.274;5.880;2023-04-24T02:29:30;98551.44;;;10.18;84.56
77706;BME280;66874;45.274;5.880;2023-04-24T05:30:40;98618.72;;;9.74;85.90
77706;BME280;66874;45.274;5.880;2023-04-24T05:33:05;98618.78;;;9.71;85.79
77706;BME280;66874;45.274;5.880;2023-04-24T05:35:31;98618.00;;;9.69;85.86
77706;BME280;66874;45.274;5.880;2023-04-24T05:37:56;98628.50;;;9.66;85.99
77706;BME280;66874;45.274;5.880;2023-04-24T05:40:22;98626.78;;;9.65;86.11
77706;BME280;66874;45.274;5.880;2023-04-24T05:42:47;98620.66;;;9.66;86.21
77706;BME280;66874;45.274;5.880;2023-04-24T05:45:12;98631.84;;;9.73;86.17
77706;BME280;66874;45.274;5.880;2023-04-24T05:47:44;98630.88;;;9.75;86.09
77706;BME280;66874;45.274;5.880;2023-04-24T05:50:10;98638.66;;;9.78;86.17
77706;BME280;66874;45.274;5.880;2023-04-24T05:52:36;98636.78;;;9.84;86.23
77706;BME280;66874;45.274;5.880;2023-04-24T05:55:01;98644.56;;;9.87;86.18
77706;BME280;66874;45.274;5.880;2023-04-24T05:57:27;98649.72;;;9.90;86.23
77706;BME280;66874;45.274;5.880;2023-04-24T05:59:52;98646.16;;;9.94;86.36
77706;BME280;66874;45.274;5.880;2023-04-24T06:02:18;98645.25;;;9.95;86.49
77706;BME280;66874;45.274;5.880;2023-04-24T06:04:44;98648.66;;;9.98;86.55
77706;BME280;66874;45.274;5.880;2023-04-24T06:07:11;98649.53;;;9.97;86.53
77706;BME280;66874;45.274;5.880;2023-04-24T06:09:36;98652.09;;;10.00;86.44
77706;BME280;66874;45.274;5.880;2023-04-24T06:12:02;98659.88;;;10.03;86.40
77706;BME280;66874;45.274;5.880;2023-04-24T06:14:27;98668.44;;;10.09;86.34
77706;BME280;66874;45.274;5.880;2023-04-24T06:16:53;98666.56;;;10.14;86.26
77706;BME280;66874;45.274;5.880;2023-04-24T06:19:18;98675.19;;;10.19;86.34
77706;BME280;66874;45.274;5.880;2023-04-24T06:21:43;98669.81;;;10.25;86.23
77706;BME280;66874;45.274;5.880;2023-04-24T06:24:09;98682.84;;;10.28;86.10
77706;BME280;66874;45.274;5.880;2023-04-24T06:26:35;98681.84;;;10.32;85.76
77706;BME280;66874;45.274;5.880;2023-04-24T06:29:00;98687.81;;;10.37;85.97
77706;BME280;66874;45.274;5.880;2023-04-24T06:31:26;98700.91;;;10.37;85.93
77706;BME280;66874;45.274;5.880;2023-04-24T06:33:51;98702.72;;;10.34;86.07
77706;BME280;66874;45.274;5.880;2023-04-24T06:36:16;98710.56;;;10.34;86.16
77706;BME280;66874;45.274;5.880;2023-04-24T06:38:42;98719.19;;;10.37;86.06
77706;BME280;66874;45.274;5.880;2023-04-24T06:41:07;98720.09;;;10.36;86.10
77706;BME280;66874;45.274;5.880;2023-04-24T06:43:33;98717.47;;;10.38;85.94
77706;BME280;66874;45.274;5.880;2023-04-24T06:45:59;98717.44;;;10.39;85.89
77706;BME280;66874;45.274;5.880;2023-04-24T06:48:25;98719.13;;;10.42;85.86
77706;BME280;66874;45.274;5.880;2023-04-24T06:50:51;98718.94;;;10.48;86.02
77706;BME280;66874;45.274;5.880;2023-04-24T06:53:17;98725.94;;;10.47;86.04
77706;BME280;66874;45.274;5.880;2023-04-24T06:55:42;98719.69;;;10.53;85.71
77706;BME280;66874;45.274;5.880;2023-04-24T06:58:10;98727.44;;;10.58;85.79
77706;BME280;66874;45.274;5.880;2023-04-24T07:00:35;98721.19;;;10.63;85.48
77706;BME280;66874;45.274;5.880;2023-04-24T07:03:01;98730.69;;;10.67;85.44
77706;BME280;66874;45.274;5.880;2023-04-24T07:05:27;98727.16;;;10.68;85.44
77706;BME280;66874;45.274;5.880;2023-04-24T07:07:53;98736.63;;;10.74;85.43
77706;BME280;66874;45.274;5.880;2023-04-24T07:10:18;98732.91;;;10.83;85.19
77706;BME280;66874;45.274;5.880;2023-04-24T07:12:45;98729.19;;;10.91;85.24
77706;BME280;66874;45.274;5.880;2023-04-24T07:15:11;98732.50;;;10.98;85.06
77706;BME280;66874;45.274;5.880;2023-04-24T07:17:36;98734.16;;;11.02;85.11
77706;BME280;66874;45.274;5.880;2023-04-24T07:20:04;98734.03;;;11.07;84.92
77706;BME280;66874;45.274;5.880;2023-04-24T07:22:29;98739.97;;;11.13;84.74
77706;BME280;66874;45.274;5.880;2023-04-24T07:24:55;98738.06;;;11.20;84.89
77706;BME280;66874;45.274;5.880;2023-04-24T07:27:20;98742.09;;;11.32;84.53
77706;BME280;66874;45.274;5.880;2023-04-24T07:29:46;98742.75;;;11.40;84.53
77706;BME280;66874;45.274;5.880;2023-04-24T07:32:11;98740.75;;;11.48;84.43
77706;BME280;66874;45.274;5.880;2023-04-24T07:34:36;98747.50;;;11.57;84.45
77706;BME280;66874;45.274;5.880;2023-04-24T07:37:02;98751.63;;;11.65;83.77
77706;BME280;66874;45.274;5.880;2023-04-24T07:39:28;98754.91;;;11.72;83.72
77706;BME280;66874;45.274;5.880;2023-04-24T07:41:54;98762.56;;;11.80;83.54
77706;BME280;66874;45.274;5.880;2023-04-24T07:44:19;98753.72;;;11.84;83.35
77706;BME280;66874;45.274;5.880;2023-04-24T07:46:45;98760.72;;;11.85;83.01
77706;BME280;66874;45.274;5.880;2023-04-24T07:49:10;98765.25;;;11.78;82.87
77706;BME280;66874;45.274;5.880;2023-04-24T07:51:35;98773.47;;;11.64;82.65
77706;BME280;66874;45.274;5.880;2023-04-24T07:54:04;98773.69;;;11.57;82.68
77706;BME280;66874;45.274;5.880;2023-04-24T07:56:31;98786.03;;;11.53;82.73
77706;BME280;66874;45.274;5.880;2023-04-24T07:58:56;98785.34;;;11.46;82.78
77706;BME280;66874;45.274;5.880;2023-04-24T08:01:21;98785.47;;;11.42;83.15
77706;BME280;66874;45.274;5.880;2023-04-24T08:03:47;98795.28;;;11.34;83.30
77706;BME280;66874;45.274;5.880;2023-04-24T08:06:12;98791.91;;;11.29;83.14
77706;BME280;66874;45.274;5.880;2023-04-24T08:08:38;98798.06;;;11.28;83.33
77706;BME280;66874;45.274;5.880;2023-04-24T08:11:03;98809.41;;;11.28;83.20
77706;BME280;66874;45.274;5.880;2023-04-24T08:13:29;98803.31;;;11.28;83.17
77706;BME280;66874;45.274;5.880;2023-04-24T08:15:55;98812.09;;;11.25;83.17
77706;BME280;66874;45.274;5.880;2023-04-24T08:18:22;98811.31;;;11.21;82.86
77706;BME280;66874;45.274;5.880;2023-04-24T08:20:47;98809.44;;;11.27;82.83
77706;BME280;66874;45.274;5.880;2023-04-24T08:23:13;98809.16;;;11.37;82.68
77706;BME280;66874;45.274;5.880;2023-04-24T08:25:38;98815.00;;;11.47;82.59
77706;BME280;66874;45.274;5.880;2023-04-24T08:28:05;98805.09;;;11.58;82.61
77706;BME280;66874;45.274;5.880;2023-04-24T08:30:31;98808.44;;;11.63;82.02
77706;BME280;66874;45.274;5.880;2023-04-24T08:32:57;98813.66;;;11.65;81.74
77706;BME280;66874;45.274;5.880;2023-04-24T08:35:22;98811.81;;;11.68;81.63
77706;BME280;66874;45.274;5.880;2023-04-24T08:37:48;98814.38;;;11.70;81.08
77706;BME280;66874;45.274;5.880;2023-04-24T08:40:15;98808.84;;;11.81;81.32
77706;BME280;66874;45.274;5.880;2023-04-24T08:42:44;98818.81;;;11.99;81.50
77706;BME280;66874;45.274;5.880;2023-04-24T08:45:11;98823.50;;;12.19;81.37
77706;BME280;66874;45.274;5.880;2023-04-24T08:47:40;98829.19;;;12.33;81.06
77706;BME280;66874;45.274;5.880;2023-04-24T08:50:07;98825.44;;;12.42;80.94
77706;BME280;66874;45.274;5.880;2023-04-24T08:52:34;98824.44;;;12.46;81.15
77706;BME280;66874;45.274;5.880;2023-04-24T08:55:00;98826.09;;;12.49;81.16
77706;BME280;66874;45.274;5.880;2023-04-24T08:57:26;98815.28;;;12.59;81.25
77706;BME280;66874;45.274;5.880;2023-04-24T08:59:53;98821.22;;;12.64;80.93
77706;BME280;66874;45.274;5.880;2023-04-24T09:02:18;98822.59;;;13.04;80.86
77706;BME280;66874;45.274;5.880;2023-04-24T09:04:45;98818.59;;;13.46;80.50
77706;BME280;66874;45.274;5.880;2023-04-24T09:07:12;98815.44;;;13.61;80.13
77706;BME280;66874;45.274;5.880;2023-04-24T09:09:40;98812.31;;;13.50;79.94
77706;BME280;66874;45.274;5.880;2023-04-24T09:12:07;98813.66;;;13.36;80.00
77706;BME280;66874;45.274;5.880;2023-04-24T09:14:34;98817.09;;;13.38;80.00
77706;BME280;66874;45.274;5.880;2023-04-24T09:17:01;98812.25;;;13.51;79.90
77706;BME280;66874;45.274;5.880;2023-04-24T09:19:27;98814.09;;;13.49;79.75
77706;BME280;66874;45.274;5.880;2023-04-24T09:21:53;98819.75;;;13.37;79.81
77706;BME280;66874;45.274;5.880;2023-04-24T09:24:20;98817.63;;;13.23;79.75
77706;BME280;66874;45.274;5.880;2023-04-24T09:26:56;98812.53;;;13.17;80.04
77706;BME280;66874;45.274;5.880;2023-04-24T09:29:22;98816.09;;;13.14;80.17
77706;BME280;66874;45.274;5.880;2023-04-24T09:31:48;98820.50;;;13.14;79.89
77706;BME280;66874;45.274;5.880;2023-04-24T09:34:13;98810.75;;;13.17;79.75
77706;BME280;66874;45.274;5.880;2023-04-24T09:36:41;98810.75;;;13.17;79.52
77706;BME280;66874;45.274;5.880;2023-04-24T09:39:09;98810.66;;;13.20;79.38
77706;BME280;66874;45.274;5.880;2023-04-24T09:44:16;98808.25;;;14.13;78.43
77706;BME280;66874;45.274;5.880;2023-04-24T09:46:43;98795.59;;;14.68;77.36
77706;BME280;66874;45.274;5.880;2023-04-24T09:49:25;98793.25;;;15.04;76.53
77706;BME280;66874;45.274;5.880;2023-04-24T09:51:51;98790.25;;;15.34;75.85
77706;BME280;66874;45.274;5.880;2023-04-24T09:54:18;98779.63;;;15.56;75.09
77706;BME280;66874;45.274;5.880;2023-04-24T09:56:49;98779.81;;;15.92;74.60
77706;BME280;66874;45.274;5.880;2023-04-24T09:59:17;98782.75;;;16.24;73.83
77706;BME280;66874;45.274;5.880;2023-04-24T10:01:42;98773.66;;;16.48;73.02
77706;BME280;66874;45.274;5.880;2023-04-24T10:04:20;98774.00;;;16.78;72.59
77706;BME280;66874;45.274;5.880;2023-04-24T10:06:47;98771.00;;;17.03;71.53
77706;BME280;66874;45.274;5.880;2023-04-24T10:09:14;98771.41;;;17.30;71.29
77706;BME280;66874;45.274;5.880;2023-04-24T10:11:42;98763.56;;;17.62;70.61
77706;BME280;66874;45.274;5.880;2023-04-24T10:14:10;98770.72;;;17.77;69.60
77706;BME280;66874;45.274;5.880;2023-04-24T10:16:38;98775.34;;;17.90;69.12
77706;BME280;66874;45.274;5.880;2023-04-24T10:19:04;98763.41;;;17.98;68.73
77706;BME280;66874;45.274;5.880;2023-04-24T10:21:30;98756.19;;;18.18;68.15
77706;BME280;66874;45.274;5.880;2023-04-24T10:23:56;98756.13;;;18.35;67.23
77706;BME280;66874;45.274;5.880;2023-04-24T10:26:22;98755.16;;;18.52;66.73
77706;BME280;66874;45.274;5.880;2023-04-24T10:28:48;98748.31;;;18.64;65.99
77706;BME280;66874;45.274;5.880;2023-04-24T10:31:14;98750.53;;;18.87;65.48
77706;BME280;66874;45.274;5.880;2023-04-24T10:33:42;98748.69;;;19.03;64.26
77706;BME280;66874;45.274;5.880;2023-04-24T10:36:09;98748.59;;;19.05;63.57
77706;BME280;66874;45.274;5.880;2023-04-24T10:38:38;98739.84;;;19.19;62.68
77706;BME280;66874;45.274;5.880;2023-04-24T10:41:10;98733.88;;;19.15;61.81
77706;BME280;66874;45.274;5.880;2023-04-24T10:43:41;98741.25;;;19.24;61.81
77706;BME280;66874;45.274;5.880;2023-04-24T10:46:07;98736.91;;;19.23;60.71
77706;BME280;66874;45.274;5.880;2023-04-24T10:48:35;98742.91;;;19.41;60.72
77706;BME280;66874;45.274;5.880;2023-04-24T10:51:01;98734.03;;;19.71;60.25
77706;BME280;66874;45.274;5.880;2023-04-24T10:53:30;98739.53;;;19.82;59.33
77706;BME280;66874;45.274;5.880;2023-04-24T10:56:03;98731.47;;;20.12;59.31
77706;BME280;66874;45.274;5.880;2023-04-24T10:58:52;98730.41;;;20.56;58.35
77706;BME280;66874;45.274;5.880;2023-04-24T11:01:29;98728.13;;;20.64;57.67
77706;BME280;66874;45.274;5.880;2023-04-24T11:04:00;98719.66;;;20.72;57.18
77706;BME280;66874;45.274;5.880;2023-04-24T11:06:33;98730.78;;;20.91;56.29
77706;BME280;66874;45.274;5.880;2023-04-24T11:09:08;98715.81;;;21.16;55.71
77706;BME280;66874;45.274;5.880;2023-04-24T11:11:35;98720.09;;;21.31;55.32
77706;BME280;66874;45.274;5.880;2023-04-24T11:14:04;98715.34;;;21.62;54.69
77706;BME280;66874;45.274;5.880;2023-04-24T11:21:47;98697.63;;;22.60;52.21
77706;BME280;66874;45.274;5.880;2023-04-24T11:24:36;98698.81;;;22.80;51.89
77706;BME280;66874;45.274;5.880;2023-04-24T11:27:19;98701.75;;;23.23;50.80
77706;BME280;66874;45.274;5.880;2023-04-24T11:32:33;98693.44;;;23.50;48.58
77706;BME280;66874;45.274;5.880;2023-04-24T11:35:23;98690.56;;;23.76;48.16
77706;BME280;66874;45.274;5.880;2023-04-24T11:37:52;98679.13;;;23.96;46.88
77706;BME280;66874;45.274;5.880;2023-04-24T11:40:19;98680.78;;;24.31;45.97
77706;BME280;66874;45.274;5.880;2023-04-24T11:42:46;98676.19;;;24.22;45.01
77706;BME280;66874;45.274;5.880;2023-04-24T11:45:14;98675.97;;;24.02;43.71
77706;BME280;66874;45.274;5.880;2023-04-24T11:47:41;98679.81;;;23.31;44.20
77706;BME280;66874;45.274;5.880;2023-04-24T11:50:09;98681.03;;;23.27;44.87
77706;BME280;66874;45.274;5.880;2023-04-24T11:52:39;98669.44;;;23.84;45.53
77706;BME280;66874;45.274;5.880;2023-04-24T11:55:23;98655.03;;;24.30;44.72
77706;BME280;66874;45.274;5.880;2023-04-24T11:57:53;98662.63;;;24.57;43.77
77706;BME280;66874;45.274;5.880;2023-04-24T12:00:23;98657.69;;;24.94;43.11
77706;BME280;66874;45.274;5.880;2023-04-24T12:02:50;98656.59;;;24.97;41.83
77706;BME280;66874;45.274;5.880;2023-04-24T12:05:26;98664.31;;;24.58;41.91
77706;BME280;66874;45.274;5.880;2023-04-24T12:07:52;98666.78;;;24.71;42.13
77706;BME280;66874;45.274;5.880;2023-04-24T12:10:28;98654.66;;;25.20;41.84
77706;BME280;66874;45.274;5.880;2023-04-24T12:12:56;98644.41;;;25.55;41.69
77706;BME280;66874;45.274;5.880;2023-04-24T12:15:21;98647.53;;;25.91;41.11
77706;BME280;66874;45.274;5.880;2023-04-24T12:17:48;98636.69;;;25.93;40.27
77706;BME280;66874;45.274;5.880;2023-04-24T12:20:15;98649.25;;;25.10;40.28
77706;BME280;66874;45.274;5.880;2023-04-24T12:22:51;98636.63;;;24.48;40.84
77706;BME280;66874;45.274;5.880;2023-04-24T12:25:20;98636.16;;;25.17;40.46
77706;BME280;66874;45.274;5.880;2023-04-24T12:27:51;98637.13;;;25.67;39.88
77706;BME280;66874;45.274;5.880;2023-04-24T12:30:17;98633.78;;;26.44;38.79
77706;BME280;66874;45.274;5.880;2023-04-24T12:32:45;98631.53;;;27.08;37.31
77706;BME280;66874;45.274;5.880;2023-04-24T12:35:12;98631.72;;;26.58;36.26
77706;BME280;66874;45.274;5.880;2023-04-24T12:37:37;98638.44;;;25.00;37.65
77706;BME280;66874;45.274;5.880;2023-04-24T12:40:09;98640.09;;;24.59;38.49
77706;BME280;66874;45.274;5.880;2023-04-24T12:42:36;98641.44;;;24.86;38.88
77706;BME280;66874;45.274;5.880;2023-04-24T12:45:06;98636.38;;;25.55;38.93
77706;BME280;66874;45.274;5.880;2023-04-24T12:47:33;98628.91;;;26.49;38.75
77706;BME280;66874;45.274;5.880;2023-04-24T12:49:59;98625.03;;;27.00;37.64
77706;BME280;66874;45.274;5.880;2023-04-24T12:52:26;98620.03;;;27.35;36.97
77706;BME280;66874;45.274;5.880;2023-04-24T12:54:53;98619.84;;;27.46;36.07
77706;BME280;66874;45.274;5.880;2023-04-24T12:57:18;98626.50;;;26.56;35.75
77706;BME280;66874;45.274;5.880;2023-04-24T12:59:44;98626.38;;;25.98;36.36
77706;BME280;66874;45.274;5.880;2023-04-24T13:02:10;98613.31;;;25.33;36.67
77706;BME280;66874;45.274;5.880;2023-04-24T13:04:36;98620.63;;;25.31;36.80
77706;BME280;66874;45.274;5.880;2023-04-24T13:07:02;98613.63;;;24.77;36.60
77706;BME280;66874;45.274;5.880;2023-04-24T13:09:27;98610.44;;;24.30;37.06
77706;BME280;66874;45.274;5.880;2023-04-24T13:11:53;98611.88;;;23.91;37.08
77706;BME280;66874;45.274;5.880;2023-04-24T13:14:19;98604.75;;;24.12;37.58
77706;BME280;66874;45.274;5.880;2023-04-24T13:16:44;98602.25;;;24.32;37.12
77706;BME280;66874;45.274;5.880;2023-04-24T13:19:10;98603.50;;;23.84;37.13
77706;BME280;66874;45.274;5.880;2023-04-24T13:21:35;98600.81;;;24.39;37.73
77706;BME280;66874;45.274;5.880;2023-04-24T13:24:01;98595.56;;;24.49;36.82
77706;BME280;66874;45.274;5.880;2023-04-24T13:26:26;98587.31;;;25.24;36.93
77706;BME280;66874;45.274;5.880;2023-04-24T13:28:52;98582.56;;;25.68;36.14
77706;BME280;66874;45.274;5.880;2023-04-24T13:31:17;98567.03;;;26.32;35.64
77706;BME280;66874;45.274;5.880;2023-04-24T13:33:43;98570.41;;;26.82;35.00
77706;BME280;66874;45.274;5.880;2023-04-24T13:36:08;98564.47;;;27.35;34.01
77706;BME280;66874;45.274;5.880;2023-04-24T13:38:34;98551.75;;;27.65;33.68
77706;BME280;66874;45.274;5.880;2023-04-24T13:40:59;98549.66;;;27.86;33.38
77706;BME280;66874;45.274;5.880;2023-04-24T13:43:25;98541.28;;;27.62;32.51
77706;BME280;66874;45.274;5.880;2023-04-24T13:45:50;98546.34;;;26.90;32.62
77706;BME280;66874;45.274;5.880;2023-04-24T13:48:15;98535.38;;;26.84;32.50
77706;BME280;66874;45.274;5.880;2023-04-24T13:50:42;98527.81;;;26.30;32.72
77706;BME280;66874;45.274;5.880;2023-04-24T13:53:07;98527.06;;;26.67;32.81
77706;BME280;66874;45.274;5.880;2023-04-24T13:55:33;98531.47;;;26.39;32.76
77706;BME280;66874;45.274;5.880;2023-04-24T13:57:58;98528.22;;;25.97;32.90
77706;BME280;66874;45.274;5.880;2023-04-24T14:00:24;98520.63;;;25.12;33.35
77706;BME280;66874;45.274;5.880;2023-04-24T14:02:49;98526.28;;;24.67;33.82
77706;BME280;66874;45.274;5.880;2023-04-24T14:05:15;98517.31;;;24.68;34.13
77706;BME280;66874;45.274;5.880;2023-04-24T14:07:41;98510.13;;;24.36;34.60
77706;BME280;66874;45.274;5.880;2023-04-24T14:10:07;98506.81;;;24.23;35.07
77706;BME280;66874;45.274;5.880;2023-04-24T14:12:33;98502.41;;;24.01;35.37
77706;BME280;66874;45.274;5.880;2023-04-24T14:14:59;98503.25;;;23.69;35.52
77706;BME280;66874;45.274;5.880;2023-04-24T14:17:24;98507.66;;;23.36;35.40
77706;BME280;66874;45.274;5.880;2023-04-24T14:19:50;98494.47;;;23.24;35.94
77706;BME280;66874;45.274;5.880;2023-04-24T14:22:17;98493.63;;;23.12;36.50
77706;BME280;66874;45.274;5.880;2023-04-24T14:24:42;98484.00;;;23.43;36.87
77706;BME280;66874;45.274;5.880;2023-04-24T14:27:08;98488.38;;;24.20;36.14
77706;BME280;66874;45.274;5.880;2023-04-24T14:29:33;98491.28;;;24.49;35.25
77706;BME280;66874;45.274;5.880;2023-04-24T14:31:58;98474.19;;;24.61;35.12
77706;BME280;66874;45.274;5.880;2023-04-24T14:34:24;98476.94;;;25.42;34.93
77706;BME280;66874;45.274;5.880;2023-04-24T14:36:49;98471.09;;;26.06;33.77
77706;BME280;66874;45.274;5.880;2023-04-24T14:39:15;98470.50;;;26.32;32.98
77706;BME280;66874;45.274;5.880;2023-04-24T14:41:40;98468.69;;;26.03;32.89
77706;BME280;66874;45.274;5.880;2023-04-24T14:44:06;98465.00;;;26.23;32.66
77706;BME280;66874;45.274;5.880;2023-04-24T14:46:31;98458.78;;;26.42;31.95
77706;BME280;66874;45.274;5.880;2023-04-24T14:48:57;98459.09;;;26.29;31.79
77706;BME280;66874;45.274;5.880;2023-04-24T14:51:23;98466.41;;;26.27;32.31
77706;BME280;66874;45.274;5.880;2023-04-24T14:53:48;98459.31;;;26.65;31.93
77706;BME280;66874;45.274;5.880;2023-04-24T14:56:15;98459.50;;;26.35;31.57
77706;BME280;66874;45.274;5.880;2023-04-24T14:58:40;98465.22;;;25.43;32.00
77706;BME280;66874;45.274;5.880;2023-04-24T15:01:06;98465.59;;;24.88;32.43
77706;BME280;66874;45.274;5.880;2023-04-24T15:03:31;98470.09;;;24.25;33.03
77706;BME280;66874;45.274;5.880;2023-04-24T15:05:56;98463.72;;;23.95;33.38
77706;BME280;66874;45.274;5.880;2023-04-24T15:08:22;98465.28;;;23.54;33.91
77706;BME280;66874;45.274;5.880;2023-04-24T15:10:48;98472.34;;;23.33;34.06
77706;BME280;66874;45.274;5.880;2023-04-24T15:13:13;98471.66;;;22.97;34.89
77706;BME280;66874;45.274;5.880;2023-04-24T15:15:39;98465.34;;;22.76;35.30
77706;BME280;66874;45.274;5.880;2023-04-24T15:18:05;98468.09;;;22.52;35.56
77706;BME280;66874;45.274;5.880;2023-04-24T15:20:31;98472.91;;;22.24;35.89
77706;BME280;66874;45.274;5.880;2023-04-24T15:22:56;98477.53;;;22.09;36.24
77706;BME280;66874;45.274;5.880;2023-04-24T15:25:24;98469.44;;;22.11;36.34
77706;BME280;66874;45.274;5.880;2023-04-24T15:27:49;98468.59;;;22.10;36.54
77706;BME280;66874;45.274;5.880;2023-04-24T15:30:15;98469.06;;;22.04;36.58
77706;BME280;66874;45.274;5.880;2023-04-24T15:32:40;98467.16;;;21.82;37.08
77706;BME280;66874;45.274;5.880;2023-04-24T15:35:06;98459.84;;;21.73;37.55
77706;BME280;66874;45.274;5.880;2023-04-24T15:37:32;98465.00;;;21.63;37.49
77706;BME280;66874;45.274;5.880;2023-04-24T15:39:57;98460.53;;;21.40;37.65
77706;BME280;66874;45.274;5.880;2023-04-24T15:42:25;98458.19;;;21.59;37.76
77706;BME280;66874;45.274;5.880;2023-04-24T15:44:50;98456.97;;;21.76;37.46
77706;BME280;66874;45.274;5.880;2023-04-24T15:47:15;98462.25;;;21.65;37.56
77706;BME280;66874;45.274;5.880;2023-04-24T15:49:41;98462.56;;;21.24;37.69
77706;BME280;66874;45.274;5.880;2023-04-24T15:52:06;98470.19;;;21.04;38.29
77706;BME280;66874;45.274;5.880;2023-04-24T15:54:34;98470.44;;;20.76;38.53
77706;BME280;66874;45.274;5.880;2023-04-24T15:56:59;98478.78;;;20.44;38.78
77706;BME280;66874;45.274;5.880;2023-04-24T15:59:26;98475.28;;;20.31;38.95
77706;BME280;66874;45.274;5.880;2023-04-24T16:01:53;98471.78;;;20.30;38.84
77706;BME280;66874;45.274;5.880;2023-04-24T16:04:20;98478.13;;;20.15;39.03
77706;BME280;66874;45.274;5.880;2023-04-24T16:06:45;98469.28;;;20.02;39.29
77706;BME280;66874;45.274;5.880;2023-04-24T16:09:11;98469.78;;;19.94;39.59
77706;BME280;66874;45.274;5.880;2023-04-24T16:11:37;98466.59;;;19.89;39.84
77706;BME280;66874;45.274;5.880;2023-04-24T16:14:04;98468.22;;;19.91;39.88
77706;BME280;66874;45.274;5.880;2023-04-24T16:16:29;98461.75;;;20.08;39.76
77706;BME280;66874;45.274;5.880;2023-04-24T16:18:55;98459.22;;;20.07;40.07
77706;BME280;66874;45.274;5.880;2023-04-24T16:21:21;98467.31;;;20.18;39.81
77706;BME280;66874;45.274;5.880;2023-04-24T16:23:46;98465.78;;;20.14;39.80
77706;BME280;66874;45.274;5.880;2023-04-24T16:26:12;98456.31;;;20.50;39.81
77706;BME280;66874;45.274;5.880;2023-04-24T16:28:38;98454.66;;;20.98;39.14
77706;BME280;66874;45.274;5.880;2023-04-24T16:31:03;98448.69;;;21.07;38.95
77706;BME280;66874;45.274;5.880;2023-04-24T16:33:29;98450.84;;;20.89;39.08
77706;BME280;66874;45.274;5.880;2023-04-24T16:35:56;98453.75;;;20.73;39.10
77706;BME280;66874;45.274;5.880;2023-04-24T16:38:21;98456.19;;;20.77;38.94
77706;BME280;66874;45.274;5.880;2023-04-24T16:40:49;98450.84;;;20.89;38.66
77706;BME280;66874;45.274;5.880;2023-04-24T16:43:16;98446.91;;;20.95;38.86
77706;BME280;66874;45.274;5.880;2023-04-24T16:45:41;98457.56;;;20.69;38.72
77706;BME280;66874;45.274;5.880;2023-04-24T16:48:06;98448.84;;;20.67;38.79
77706;BME280;66874;45.274;5.880;2023-04-24T16:50:33;98450.88;;;20.64;38.78
77706;BME280;66874;45.274;5.880;2023-04-24T16:52:58;98459.34;;;20.43;38.89
77706;BME280;66874;45.274;5.880;2023-04-24T16:55:24;98464.00;;;20.14;38.99
77706;BME280;66874;45.274;5.880;2023-04-24T16:57:49;98459.31;;;20.05;39.17
77706;BME280;66874;45.274;5.880;2023-04-24T17:00:15;98460.00;;;19.82;39.00
77706;BME280;66874;45.274;5.880;2023-04-24T17:02:41;98461.88;;;19.67;39.72
77706;BME280;66874;45.274;5.880;2023-04-24T17:05:07;98466.25;;;19.54;39.91
77706;BME280;66874;45.274;5.880;2023-04-24T17:07:32;98462.47;;;19.43;40.13
77706;BME280;66874;45.274;5.880;2023-04-24T17:09:58;98465.38;;;19.26;39.95
77706;BME280;66874;45.274;5.880;2023-04-24T17:12:23;98461.44;;;19.05;40.52
77706;BME280;66874;45.274;5.880;2023-04-24T17:14:48;98455.22;;;18.91;40.70
77706;BME280;66874;45.274;5.880;2023-04-24T17:17:14;98453.13;;;18.82;40.39
77706;BME280;66874;45.274;5.880;2023-04-24T17:19:40;98458.50;;;18.66;40.69
77706;BME280;66874;45.274;5.880;2023-04-24T17:22:05;98466.56;;;18.65;40.76
77706;BME280;66874;45.274;5.880;2023-04-24T17:24:31;98470.78;;;18.67;40.89
77706;BME280;66874;45.274;5.880;2023-04-24T17:26:56;98471.38;;;18.58;40.84
77706;BME280;66874;45.274;5.880;2023-04-24T17:29:23;98482.13;;;18.41;41.11
77706;BME280;66874;45.274;5.880;2023-04-24T17:31:48;98482.78;;;18.30;41.51
77706;BME280;66874;45.274;5.880;2023-04-24T17:34:14;98484.00;;;18.24;41.88
77706;BME280;66874;45.274;5.880;2023-04-24T17:36:39;98487.38;;;18.12;41.82
77706;BME280;66874;45.274;5.880;2023-04-24T17:39:04;98483.50;;;18.03;41.90
77706;BME280;66874;45.274;5.880;2023-04-24T17:41:30;98484.63;;;17.99;42.00
77706;BME280;66874;45.274;5.880;2023-04-24T17:43:55;98486.75;;;17.93;42.41
77706;BME280;66874;45.274;5.880;2023-04-24T17:46:21;98489.84;;;17.85;42.63
77706;BME280;66874;45.274;5.880;2023-04-24T17:48:46;98484.81;;;17.80;42.59
77706;BME280;66874;45.274;5.880;2023-04-24T17:51:12;98486.09;;;17.73;43.21
77706;BME280;66874;45.274;5.880;2023-04-24T17:53:37;98483.78;;;17.67;43.29
77706;BME280;66874;45.274;5.880;2023-04-24T17:56:03;98486.44;;;17.51;43.70
77706;BME280;66874;45.274;5.880;2023-04-24T17:58:29;98496.19;;;17.51;43.73
77706;BME280;66874;45.274;5.880;2023-04-24T18:00:55;98498.13;;;17.47;44.10
77706;BME280;66874;45.274;5.880;2023-04-24T18:03:20;98499.34;;;17.42;44.19
77706;BME280;66874;45.274;5.880;2023-04-24T18:05:46;98496.94;;;17.37;44.35